Time;durP1;ratioP1;P1;durP2;ratioP2;P2;SDS_P1;SDS_P2;PMS_P1;PMS_P2;Temp;Humidity;BMP_temperature;BMP_pressure;BME280_temperature;BME280_humidity;BME280_pressure;Samples;Min_cycle;Max_cycle;Signal;HPM_P1;HPM_P2
2023/08/04 02:06:50;;;;;;;12.57;4.10;;;14.80;99.90;;;;;;6151447;23;20025;-86
2023/08/04 02:21:47;;;;;;;13.30;4.35;;;14.50;99.90;;;;;;6095569;23;20358;-86
2023/08/04 02:43:57;;;;;;;;;;;;;;;;;;;;;
2023/08/04 02:53:19;;;;;;;12.10;4.05;;;14.80;99.90;;;;;;6115363;23;20105;-86
2023/08/04 03:08:39;;;;;;;;;;;;;;;;;;;;;
2023/08/04 03:12:22;;;;;;;;;;;;;;;;;;;;;
2023/08/04 03:16:05;;;;;;;;;;;;;;;;;;;;;
2023/08/04 03:19:29;;;;;;;12.40;3.53;;;15.20;99.90;;;;;;6094220;23;20108;-86
2023/08/04 03:22:23;;;;;;;;;;;;;;;;;;;;;
2023/08/04 03:25:54;;;;;;;12.13;4.00;;;14.70;99.90;;;;;;6122974;23;20068;-86
2023/08/04 03:53:48;;;;;;;;;;;;;;;;;;;;;
2023/08/04 03:56:56;;;;;;;10.63;4.00;;;14.80;99.90;;;;;;6076092;23;20069;-86
2023/08/04 04:00:22;;;;;;;;;;;;;;;;;;;;;
2023/08/04 04:30:55;;;;;;;;;;;;;;;;;;;;;
2023/08/04 04:33:59;;;;;;;11.50;4.68;;;14.60;99.90;;;;;;6096256;23;20021;-85
2023/08/04 04:42:27;;;;;;;12.10;5.00;;;14.60;99.90;;;;;;6154523;23;20025;-85
2023/08/04 04:45:30;;;;;;;;;;;;;;;;;;;;;
2023/08/04 04:56:21;;;;;;;11.30;4.53;;;14.40;99.90;;;;;;6128079;23;20346;-86
2023/08/04 05:02:40;;;;;;;12.15;4.75;;;14.80;99.90;;;;;;6038648;23;20062;-85
2023/08/04 05:05:31;;;;;;;;;;;;;;;;;;;;;
2023/08/04 05:08:26;;;;;;;10.40;4.65;;;14.80;99.90;;;;;;6066067;23;20020;-85
2023/08/04 05:14:04;;;;;;;12.00;4.57;;;14.90;99.90;;;;;;6180932;23;20025;-87
2023/08/04 05:22:14;;;;;;;12.20;4.90;;;15.00;99.90;;;;;;6155048;23;20446;-85
2023/08/04 05:31:28;;;;;;;12.75;4.72;;;15.10;99.90;;;;;;6141007;23;20509;-86
2023/08/04 05:34:30;;;;;;;;;;;;;;;;;;;;;
2023/08/04 05:41:49;;;;;;;;;;;;;;;;;;;;;
2023/08/04 05:47:55;;;;;;;14.90;4.93;;;15.10;99.90;;;;;;6119205;23;20611;31
2023/08/04 05:51:12;;;;;;;13.63;4.80;;;15.20;99.90;;;;;;6068313;23;20027;-86
2023/08/04 05:54:03;;;;;;;10.75;4.63;;;15.10;99.90;;;;;;6071918;23;20129;-86
2023/08/04 05:56:29;;;;;;;11.25;4.32;;;15.20;99.90;;;;;;6128013;23;20022;-85
2023/08/04 05:58:55;;;;;;;14.48;4.75;;;15.00;99.90;;;;;;6155015;23;20125;-85
2023/08/04 06:01:36;;;;;;;9.75;4.07;;;15.30;99.90;;;;;;6127724;23;20460;-87
2023/08/04 06:04:04;;;;;;;10.05;3.75;;;15.40;99.90;;;;;;6129085;23;20453;-87
2023/08/04 06:06:30;;;;;;;10.88;4.28;;;15.30;99.90;;;;;;6154371;23;20072;-86
2023/08/04 06:09:08;;;;;;;11.75;4.13;;;15.30;99.90;;;;;;6128348;23;20433;-86
2023/08/04 06:11:45;;;;;;;10.23;4.72;;;14.80;99.90;;;;;;6154858;23;20021;-90
2023/08/04 06:17:54;;;;;;;10.75;4.70;;;15.40;99.90;;;;;;6151172;23;20034;-87
2023/08/04 06:20:47;;;;;;;10.90;4.18;;;15.40;99.90;;;;;;6127852;23;20079;-86
2023/08/04 06:26:38;;;;;;;9.48;3.67;;;15.50;99.90;;;;;;6151837;23;20029;-86
2023/08/04 06:29:03;;;;;;;10.50;3.90;;;15.50;99.90;;;;;;5984302;23;20039;-86
2023/08/04 06:32:19;;;;;;;10.05;3.72;;;15.60;99.90;;;;;;6109113;23;20454;-87
2023/08/04 06:34:44;;;;;;;11.82;3.67;;;15.50;99.90;;;;;;6153501;23;20022;-87
2023/08/04 06:37:22;;;;;;;11.35;3.55;;;15.70;99.90;;;;;;6125789;23;21314;-87
2023/08/04 06:40:13;;;;;;;12.40;3.58;;;15.70;99.90;;;;;;6128020;23;20037;-87
2023/08/04 06:42:42;;;;;;;10.95;3.60;;;15.80;99.90;;;;;;6128062;23;20108;-87
2023/08/04 06:45:28;;;;;;;13.05;3.97;;;15.80;99.90;;;;;;6128111;23;20072;-87
2023/08/04 06:47:54;;;;;;;11.05;3.80;;;16.00;99.90;;;;;;6127738;23;20021;-86
2023/08/04 06:50:35;;;;;;;9.43;3.67;;;16.00;99.90;;;;;;6127757;23;20021;-86
2023/08/04 06:53:52;;;;;;;11.32;4.05;;;16.10;99.90;;;;;;6094922;23;20080;-87
2023/08/04 06:56:43;;;;;;;12.13;4.20;;;15.90;99.90;;;;;;6095625;23;20023;-86
2023/08/04 06:59:12;;;;;;;9.30;3.60;;;16.20;99.90;;;;;;6095306;23;20025;-87
2023/08/04 07:01:37;;;;;;;10.30;4.30;;;16.30;99.90;;;;;;6095013;23;20443;-87
2023/08/04 07:04:15;;;;;;;10.52;3.83;;;16.40;99.90;;;;;;6094752;23;20062;-86
2023/08/04 07:06:41;;;;;;;11.23;3.78;;;16.50;99.90;;;;;;6094849;23;20025;-86
2023/08/04 07:09:07;;;;;;;10.68;4.10;;;16.50;99.90;;;;;;6128538;23;20021;-84
2023/08/04 07:11:48;;;;;;;11.43;4.20;;;16.50;99.90;;;;;;6153432;23;20017;-85
2023/08/04 07:14:34;;;;;;;;;;;16.50;99.90;;;;;;6129180;23;20022;-86
2023/08/04 07:17:12;;;;;;;10.13;3.58;;;16.50;99.90;;;;;;6128800;23;19912;-87
2023/08/04 07:19:38;;;;;;;11.20;3.92;;;16.50;99.90;;;;;;6155084;23;20023;-88
2023/08/04 07:22:04;;;;;;;9.18;3.72;;;17.00;99.90;;;;;;6149463;23;20048;-90
2023/08/04 07:24:34;;;;;;;10.13;3.70;;;16.60;99.90;;;;;;6128551;23;20047;-89
2023/08/04 07:27:00;;;;;;;9.55;3.45;;;16.60;99.90;;;;;;6129704;23;20020;-87
2023/08/04 07:29:26;;;;;;;9.20;3.40;;;16.80;99.90;;;;;;6155090;23;20096;-87
2023/08/04 07:31:51;;;;;;;9.70;3.60;;;16.80;99.90;;;;;;6156309;23;20013;-87
2023/08/04 07:34:17;;;;;;;10.25;3.42;;;17.00;99.90;;;;;;6127212;23;20096;-87
2023/08/04 07:36:46;;;;;;;10.38;3.40;;;17.00;99.90;;;;;;6130835;23;20014;-88
2023/08/04 07:39:12;;;;;;;9.68;3.35;;;17.10;99.90;;;;;;6130990;23;20017;-87
2023/08/04 07:41:37;;;;;;;11.20;3.50;;;17.10;99.90;;;;;;6155980;23;20304;-87
2023/08/04 07:44:15;;;;;;;10.82;2.88;;;17.20;99.90;;;;;;6131989;23;20049;-88
2023/08/04 07:46:40;;;;;;;13.02;3.08;;;17.20;99.90;;;;;;6156199;23;20087;-88
2023/08/04 07:49:06;;;;;;;8.30;2.67;;;17.30;99.90;;;;;;6129510;23;20021;-88
2023/08/04 07:51:51;;;;;;;9.20;2.75;;;17.40;99.90;;;;;;6092016;23;20016;-88
2023/08/04 07:54:20;;;;;;;6.60;2.28;;;17.60;99.90;;;;;;6154391;23;20017;-88
2023/08/04 07:56:46;;;;;;;9.23;2.40;;;17.60;99.90;;;;;;6129641;23;20063;-87
2023/08/04 07:59:12;;;;;;;8.23;2.67;;;17.50;99.90;;;;;;6130890;23;20021;-87
2023/08/04 08:01:37;;;;;;;8.00;2.50;;;17.60;99.90;;;;;;6155673;23;20434;-87
2023/08/04 08:04:09;;;;;;;8.02;2.58;;;17.60;99.90;;;;;;6132930;23;20029;-88
2023/08/04 08:06:50;;;;;;;8.25;2.40;;;17.70;99.90;;;;;;6149053;23;20032;-87
2023/08/04 08:09:15;;;;;;;6.60;2.45;;;18.30;99.90;;;;;;6155873;23;20052;-87
2023/08/04 08:11:50;;;;;;;6.70;2.15;;;17.70;99.90;;;;;;6156155;23;20021;-88
2023/08/04 08:14:31;;;;;;;8.32;2.45;;;17.80;99.90;;;;;;6156727;23;20017;-87
2023/08/04 08:17:00;;;;;;;7.93;2.40;;;17.90;99.90;;;;;;6128264;23;20025;-87
2023/08/04 08:19:51;;;;;;;7.45;2.60;;;17.90;99.90;;;;;;6156612;23;20021;-87
2023/08/04 08:22:35;;;;;;;7.30;2.35;;;18.00;99.90;;;;;;6129271;23;20446;-86
2023/08/04 08:25:25;;;;;;;6.50;2.05;;;18.20;99.90;;;;;;6129782;23;20021;-87
2023/08/04 08:27:59;;;;;;;8.38;2.47;;;18.30;99.90;;;;;;6129084;23;20029;-87
2023/08/04 08:30:25;;;;;;;7.75;2.60;;;18.50;99.90;;;;;;6129085;23;20028;-87
2023/08/04 08:32:50;;;;;;;8.20;2.40;;;18.40;99.90;;;;;;6129796;23;20017;-88
2023/08/04 08:35:16;;;;;;;7.38;2.33;;;18.40;99.90;;;;;;6131742;23;20018;-86
2023/08/04 08:37:42;;;;;;;5.93;2.00;;;18.50;99.90;;;;;;6128397;23;20022;-88
2023/08/04 08:40:09;;;;;;;6.97;2.20;;;18.50;99.90;;;;;;6156050;23;20017;-87
2023/08/04 08:42:35;;;;;;;7.55;2.17;;;18.60;99.90;;;;;;6129373;23;20378;-88
2023/08/04 08:45:01;;;;;;;6.93;2.40;;;19.10;99.90;;;;;;6129437;23;20017;-87
2023/08/04 08:47:35;;;;;;;6.88;2.20;;;19.20;99.90;;;;;;6129611;23;20025;-88
2023/08/04 08:50:02;;;;;;;;;;;18.90;99.90;;;;;;6129711;23;20029;-89
2023/08/04 08:52:32;;;;;;;7.80;2.22;;;19.10;99.90;;;;;;6156487;23;19916;-86
2023/08/04 08:55:05;;;;;;;8.80;2.17;;;19.30;99.90;;;;;;6129449;23;20021;-87
2023/08/04 08:57:42;;;;;;;7.07;2.28;;;19.40;99.90;;;;;;6155424;23;20017;-87
2023/08/04 09:00:09;;;;;;;7.38;2.47;;;19.20;99.90;;;;;;6156439;23;20089;-87
2023/08/04 09:02:53;;;;;;;6.38;2.00;;;19.30;99.90;;;;;;6153030;23;20024;-88
2023/08/04 09:05:22;;;;;;;7.63;2.10;;;19.30;99.90;;;;;;6128820;23;20021;-89
2023/08/04 09:08:46;;;;;;;;;;;;;;;;;;;;;
2023/08/04 09:11:40;;;;;;;5.72;1.98;;;19.00;99.90;;;;;;6057558;23;20398;-89
2023/08/04 11:22:11;;;;;;;8.43;2.28;;;21.40;99.90;;;;;;6140009;23;20111;-86
2023/08/04 11:25:42;;;;;;;7.85;2.08;;;21.30;99.90;;;;;;6118150;23;20410;-86
2023/08/04 15:10:36;;;;;;;7.00;2.33;;;21.00;99.90;;;;;;6096813;23;20781;-85
2023/08/04 15:13:02;;;;;;;8.25;2.50;;;20.50;99.90;;;;;;6128427;23;20024;-85
2023/08/04 15:31:14;;;;;;;8.27;2.45;;;21.00;99.90;;;;;;6140693;23;20045;-83
2023/08/04 15:33:41;;;;;;;8.60;2.38;;;21.10;99.90;;;;;;6154133;23;20022;-84
2023/08/04 15:36:30;;;;;;;8.02;2.50;;;21.00;99.90;;;;;;6153552;23;20017;-84
2023/08/04 15:39:14;;;;;;;9.27;2.50;;;21.00;99.90;;;;;;6104557;23;20026;-84
2023/08/04 15:41:39;;;;;;;7.75;2.40;;;21.10;99.90;;;;;;6128434;23;20331;-83
2023/08/04 15:44:14;;;;;;;7.88;2.33;;;21.30;99.90;;;;;;6129127;23;20049;-86
2023/08/04 15:47:44;;;;;;;;;;;;;;;;;;;;;
2023/08/04 15:56:16;;;;;;;7.47;2.50;;;21.10;99.90;;;;;;6125870;23;20030;-84
2023/08/04 15:59:13;;;;;;;;;;;;;;;;;;;;;
2023/08/04 16:03:21;;;;;;;7.95;2.30;;;20.30;99.90;;;;;;6118444;23;20025;-84
2023/08/04 16:05:59;;;;;;;9.10;2.60;;;20.10;99.90;;;;;;6098453;23;20077;-83
2023/08/04 16:08:31;;;;;;;8.60;3.30;;;20.10;99.90;;;;;;6099075;23;20022;-84
2023/08/04 16:17:55;;;;;;;12.20;5.05;;;20.20;99.90;;;;;;6154493;23;20021;-83
2023/08/04 16:20:56;;;;;;;10.65;3.53;;;19.90;99.90;;;;;;6127916;23;20107;-83
2023/08/04 16:23:36;;;;;;;8.68;2.90;;;20.20;99.90;;;;;;6128529;23;20371;-84
2023/08/04 16:30:16;;;;;;;8.43;2.72;;;20.60;99.90;;;;;;5968161;23;20153;-83
2023/08/04 16:35:31;;;;;;;7.50;2.42;;;20.40;99.90;;;;;;6153793;23;20053;-83
2023/08/04 16:38:13;;;;;;;7.50;2.30;;;20.40;99.90;;;;;;6129281;23;20025;-84
2023/08/04 16:40:41;;;;;;;7.13;2.20;;;20.70;99.90;;;;;;6144020;23;20041;-83
2023/08/04 16:43:12;;;;;;;7.20;2.22;;;20.40;99.90;;;;;;6154709;23;20669;-84
2023/08/04 16:48:53;;;;;;;7.10;2.45;;;19.70;99.90;;;;;;6150193;23;20032;-83
2023/08/04 16:51:21;;;;;;;7.05;2.30;;;20.20;99.90;;;;;;6123318;23;20022;-84
2023/08/04 16:54:31;;;;;;;7.00;2.20;;;20.30;99.90;;;;;;6128494;23;20024;-85
2023/08/04 16:57:30;;;;;;;6.28;2.20;;;20.40;99.90;;;;;;6128113;23;20038;-85
2023/08/04 17:00:15;;;;;;;;;;;;;;;;;;;;;
2023/08/04 17:03:17;;;;;;;8.57;2.65;;;21.00;99.90;;;;;;5965190;23;20019;-86
2023/08/04 17:10:17;;;;;;;7.53;2.55;;;20.60;99.90;;;;;;5996044;23;20023;-86
2023/08/04 17:16:56;;;;;;;7.55;2.75;;;20.20;99.90;;;;;;5922599;24;20104;-85
2023/08/04 17:20:49;;;;;;;;;;;;;;;;;;;;;
2023/08/04 17:23:50;;;;;;;;;;;;;;;;;;;;;
2023/08/04 17:42:36;;;;;;;7.70;2.72;;;19.60;99.90;;;;;;6120449;23;20029;-87
2023/08/04 18:18:09;;;;;;;7.78;2.63;;;18.40;99.90;;;;;;6119629;23;20044;-86
2023/08/04 18:21:11;;;;;;;;;;;;;;;;;;;;;
2023/08/04 18:24:25;;;;;;;;;;;;;;;;;;;;;
2023/08/04 18:56:19;;;;;;;8.77;2.50;;;16.90;99.90;;;;;;5999645;23;20106;-85
2023/08/04 18:59:43;;;;;;;9.25;2.47;;;16.70;99.90;;;;;;6153238;23;20024;-84
2023/08/04 19:15:02;;;;;;;9.45;2.75;;;16.60;99.90;;;;;;6111062;23;20029;-85
2023/08/04 19:32:42;;;;;;;9.63;3.55;;;16.60;99.90;;;;;;6152878;23;20089;-86
2023/08/04 19:35:35;;;;;;;11.48;3.53;;;16.30;99.90;;;;;;6151522;23;20040;-85
